Time;durP1;ratioP1;P1;durP2;ratioP2;P2;SDS_P1;SDS_P2;PMS_P1;PMS_P2;Temp;Humidity;BMP_temperature;BMP_pressure;BME280_temperature;BME280_humidity;BME280_pressure;Samples;Min_cycle;Max_cycle;Signal;HPM_P1;HPM_P2
2022/05/06 00:02:24;;;;;;;42.00;24.37;;;13.00;1.00;;;;;;5060929;28;20477;-55
2022/05/06 00:04:50;;;;;;;38.22;23.77;;;13.10;1.00;;;;;;5067264;28;20384;-54
2022/05/06 00:07:16;;;;;;;40.88;24.95;;;13.00;1.00;;;;;;5066749;28;21018;-55
2022/05/06 00:09:44;;;;;;;40.70;23.77;;;13.00;1.00;;;;;;5068460;28;20379;-54
2022/05/06 00:12:12;;;;;;;39.25;23.88;;;12.90;1.00;;;;;;5065762;28;20387;-54
2022/05/06 00:14:38;;;;;;;42.33;25.27;;;12.90;1.00;;;;;;5068390;28;20394;-54
2022/05/06 00:17:05;;;;;;;41.55;24.48;;;12.90;1.00;;;;;;5070822;28;20379;-54
2022/05/06 00:19:31;;;;;;;40.30;24.52;;;12.90;1.00;;;;;;5057505;28;20393;-54
2022/05/06 00:21:57;;;;;;;41.67;25.10;;;12.90;1.00;;;;;;5059272;28;20407;-54
2022/05/06 00:24:22;;;;;;;40.05;23.60;;;12.90;1.00;;;;;;5053997;28;20407;-54
2022/05/06 00:26:48;;;;;;;43.47;25.30;;;12.90;1.00;;;;;;5052204;28;20393;-56
2022/05/06 00:29:14;;;;;;;40.50;24.48;;;12.90;1.00;;;;;;5064560;28;20387;-57
2022/05/06 00:31:40;;;;;;;42.50;24.90;;;12.90;1.00;;;;;;5067447;28;20388;-57
2022/05/06 00:34:06;;;;;;;41.00;24.50;;;13.00;1.00;;;;;;5062363;28;21278;-54
2022/05/06 00:36:31;;;;;;;40.87;25.23;;;13.00;1.00;;;;;;5061582;28;20384;-54
2022/05/06 00:38:57;;;;;;;40.80;23.83;;;13.00;1.00;;;;;;5065500;28;20432;-54
2022/05/06 00:41:23;;;;;;;40.67;24.50;;;12.90;1.00;;;;;;5051309;28;20417;-54
2022/05/06 00:43:48;;;;;;;43.13;23.65;;;12.90;1.00;;;;;;5064901;28;20424;-53
2022/05/06 00:46:15;;;;;;;42.70;25.17;;;13.00;1.00;;;;;;5059715;28;20396;-54
2022/05/06 00:48:44;;;;;;;43.30;25.50;;;13.10;1.00;;;;;;5071149;28;20418;-56
2022/05/06 00:51:10;;;;;;;42.13;23.83;;;13.10;1.00;;;;;;5035509;28;20485;-54
2022/05/06 00:53:36;;;;;;;38.15;22.80;;;13.10;1.00;;;;;;5060304;28;20510;-54
2022/05/06 00:56:04;;;;;;;42.10;23.20;;;13.20;1.00;;;;;;5067369;28;20448;-54
2022/05/06 00:58:31;;;;;;;38.53;23.73;;;13.10;1.00;;;;;;5051317;28;20413;-57
2022/05/06 01:00:57;;;;;;;40.05;23.67;;;13.20;1.00;;;;;;5066013;28;20437;-54
2022/05/06 01:03:23;;;;;;;40.00;24.00;;;13.20;1.00;;;;;;5068077;28;20853;-54
2022/05/06 01:05:52;;;;;;;39.38;23.35;;;13.20;1.00;;;;;;5059236;28;20392;-54
2022/05/06 01:08:19;;;;;;;36.60;23.15;;;13.30;1.00;;;;;;5058672;28;20397;-53
2022/05/06 01:10:45;;;;;;;36.95;23.90;;;13.20;1.00;;;;;;5055528;28;20384;-53
2022/05/06 01:13:10;;;;;;;39.28;23.27;;;13.20;1.00;;;;;;5056160;28;20581;-54
2022/05/06 01:15:37;;;;;;;38.83;24.53;;;13.10;1.00;;;;;;5050857;28;20382;-54
2022/05/06 01:18:04;;;;;;;37.20;23.15;;;13.20;1.00;;;;;;5065750;28;20425;-54
2022/05/06 01:20:35;;;;;;;39.60;23.45;;;13.20;1.00;;;;;;5062716;28;20774;-54
2022/05/06 01:23:01;;;;;;;40.88;23.42;;;13.20;1.00;;;;;;5061115;28;20415;-54
2022/05/06 01:25:27;;;;;;;39.73;24.73;;;13.10;1.00;;;;;;5067102;28;20396;-56
2022/05/06 01:27:56;;;;;;;37.70;23.73;;;13.10;1.00;;;;;;5066645;28;20403;-55
2022/05/06 01:30:25;;;;;;;41.70;24.48;;;13.10;1.00;;;;;;5068740;28;20388;-55
2022/05/06 01:32:51;;;;;;;41.90;23.13;;;13.20;1.00;;;;;;5052898;28;20409;-54
2022/05/06 01:35:21;;;;;;;41.85;26.10;;;13.20;1.00;;;;;;5057298;28;20473;-55
2022/05/06 01:37:49;;;;;;;42.72;24.42;;;13.00;1.00;;;;;;5051005;28;20401;-54
2022/05/06 01:40:18;;;;;;;41.15;24.55;;;13.00;1.00;;;;;;5051383;28;20858;-55
2022/05/06 01:42:46;;;;;;;43.70;24.05;;;13.10;1.00;;;;;;5052245;28;20967;-54
2022/05/06 01:45:15;;;;;;;37.83;22.80;;;13.10;1.00;;;;;;5061624;28;20880;-55
2022/05/06 01:47:42;;;;;;;41.65;24.70;;;13.10;1.00;;;;;;5070162;28;20379;-55
2022/05/06 01:50:10;;;;;;;43.50;23.60;;;13.10;1.00;;;;;;5055431;28;20428;-55
2022/05/06 01:52:39;;;;;;;42.58;24.45;;;13.10;1.00;;;;;;5051396;28;20397;-55
2022/05/06 01:55:06;;;;;;;41.55;23.98;;;13.10;1.00;;;;;;5049406;28;20672;-55
2022/05/06 01:57:32;;;;;;;44.00;24.27;;;13.10;1.00;;;;;;5053901;28;20393;-57
2022/05/06 01:59:58;;;;;;;38.80;24.40;;;13.10;1.00;;;;;;5061404;28;20464;-55
2022/05/06 02:02:23;;;;;;;45.80;24.50;;;13.10;1.00;;;;;;5067772;28;20416;-55
2022/05/06 02:07:33;;;;;;;41.30;24.13;;;13.00;1.00;;;;;;5056595;28;20803;-55
2022/05/06 02:09:59;;;;;;;42.90;24.70;;;12.90;1.00;;;;;;5063669;28;20396;-55
2022/05/06 02:12:25;;;;;;;46.60;24.90;;;12.90;1.00;;;;;;5064966;28;20399;-55
2022/05/06 02:14:51;;;;;;;42.47;24.70;;;12.90;1.00;;;;;;5051098;28;20450;-55
2022/05/06 02:17:17;;;;;;;44.20;24.93;;;12.90;1.00;;;;;;5069530;28;20391;-55
2022/05/06 02:19:42;;;;;;;41.72;24.80;;;12.90;1.00;;;;;;5055041;28;20939;-55
2022/05/06 02:22:08;;;;;;;39.40;24.10;;;12.80;1.00;;;;;;5049773;28;20410;-56
2022/05/06 02:24:34;;;;;;;43.03;25.67;;;12.80;1.00;;;;;;5031422;28;20401;-56
2022/05/06 02:26:59;;;;;;;42.30;25.08;;;12.80;1.00;;;;;;5064153;28;20530;-55
2022/05/06 02:29:25;;;;;;;45.03;25.10;;;12.80;1.00;;;;;;5058242;28;20386;-55
2022/05/06 02:34:35;;;;;;;38.25;24.13;;;12.80;1.00;;;;;;5069615;28;20398;-55
2022/05/06 02:37:01;;;;;;;42.85;24.52;;;12.80;1.00;;;;;;5033529;28;20416;-55
2022/05/06 02:39:27;;;;;;;41.97;24.30;;;12.90;1.00;;;;;;5055662;28;20485;-55
2022/05/06 02:41:52;;;;;;;39.90;23.20;;;12.90;1.00;;;;;;5056846;28;21180;-55
2022/05/06 02:44:18;;;;;;;37.60;23.40;;;12.90;1.00;;;;;;5050526;28;20456;-54
2022/05/06 02:46:44;;;;;;;43.43;22.90;;;13.00;1.00;;;;;;5063761;28;20870;-56
2022/05/06 02:49:09;;;;;;;38.38;24.00;;;13.00;1.00;;;;;;5049971;28;20391;-55
2022/05/06 02:51:35;;;;;;;40.17;22.70;;;13.00;1.00;;;;;;5049758;28;20728;-55
2022/05/06 02:54:01;;;;;;;35.38;24.15;;;13.00;1.00;;;;;;5060080;28;20756;-55
2022/05/06 02:56:26;;;;;;;39.47;23.70;;;13.10;1.00;;;;;;5051309;28;20879;-55
2022/05/06 02:58:52;;;;;;;40.55;22.88;;;13.10;1.00;;;;;;5063138;28;20895;-55
2022/05/06 03:01:18;;;;;;;41.50;22.33;;;13.00;1.00;;;;;;5063784;28;20860;-55
2022/05/06 03:03:44;;;;;;;37.00;22.10;;;12.90;1.00;;;;;;5066780;28;20937;-55
2022/05/06 03:06:09;;;;;;;36.07;21.60;;;13.00;1.00;;;;;;5069154;28;20475;-55
2022/05/06 03:08:36;;;;;;;37.67;21.95;;;13.00;1.00;;;;;;5054990;28;20393;-55
2022/05/06 03:11:02;;;;;;;35.78;21.05;;;13.00;1.00;;;;;;5055551;28;20417;-55
2022/05/06 03:13:28;;;;;;;35.30;21.90;;;13.10;1.00;;;;;;5055730;28;20397;-55
2022/05/06 03:15:53;;;;;;;31.75;20.20;;;12.40;1.00;;;;;;5058468;28;20834;-55
2022/05/06 03:18:19;;;;;;;32.63;19.45;;;13.00;1.00;;;;;;5066727;28;20752;-56
2022/05/06 03:20:45;;;;;;;30.73;18.35;;;13.10;1.00;;;;;;5068178;28;20907;-55
2022/05/06 03:23:15;;;;;;;31.88;18.73;;;13.10;1.00;;;;;;5048558;28;20413;-55
2022/05/06 03:25:40;;;;;;;29.73;18.20;;;13.20;1.00;;;;;;5052012;28;20480;-55
2022/05/06 03:28:09;;;;;;;25.33;15.77;;;13.30;1.00;;;;;;5065268;28;20738;-56
2022/05/06 03:30:44;;;;;;;32.20;17.47;;;13.40;1.00;;;;;;5068379;28;20474;-55
2022/05/06 03:33:12;;;;;;;31.45;17.30;;;13.40;1.00;;;;;;5059877;28;20406;-55
2022/05/06 03:35:38;;;;;;;26.63;16.90;;;13.40;1.00;;;;;;5057161;28;20478;-55
2022/05/06 03:38:05;;;;;;;29.67;17.90;;;13.50;1.00;;;;;;5057614;28;20497;-57
2022/05/06 03:40:32;;;;;;;32.03;18.85;;;13.50;1.00;;;;;;5056825;28;20396;-55
2022/05/06 03:42:58;;;;;;;29.10;18.02;;;13.60;1.00;;;;;;5059511;28;20881;-55
2022/05/06 03:45:24;;;;;;;27.30;17.40;;;13.50;1.00;;;;;;5061487;28;20929;-55
2022/05/06 03:47:50;;;;;;;29.77;18.40;;;13.60;1.00;;;;;;5059557;28;20474;-54
2022/05/06 03:53:00;;;;;;;29.27;18.10;;;13.60;1.00;;;;;;5058794;28;20702;-55
2022/05/06 03:55:26;;;;;;;29.60;18.53;;;13.60;1.00;;;;;;5060928;28;20873;-55
2022/05/06 03:57:52;;;;;;;27.65;17.52;;;13.60;1.00;;;;;;5058804;28;20399;-55
2022/05/06 04:00:19;;;;;;;28.37;17.70;;;13.60;1.00;;;;;;5059755;28;20475;-57
2022/05/06 04:02:45;;;;;;;33.90;19.25;;;13.60;1.00;;;;;;5058123;28;20422;-55
2022/05/06 04:05:11;;;;;;;28.80;17.87;;;13.50;1.00;;;;;;5059238;28;20405;-55
2022/05/06 04:07:37;;;;;;;27.77;17.92;;;13.50;1.00;;;;;;5064623;28;20399;-54
2022/05/06 04:10:03;;;;;;;28.00;17.10;;;13.30;1.00;;;;;;5071054;28;20376;-55
2022/05/06 04:12:29;;;;;;;30.70;18.60;;;13.20;1.00;;;;;;5058051;28;20459;-55
2022/05/06 04:14:54;;;;;;;26.63;17.75;;;13.10;1.00;;;;;;5051431;28;20385;-54
2022/05/06 04:17:23;;;;;;;27.17;17.87;;;13.10;1.00;;;;;;5068442;28;20383;-54
2022/05/06 04:25:18;;;;;;;28.15;17.90;;;13.00;1.00;;;;;;5070168;28;20522;-54
2022/05/06 04:27:44;;;;;;;28.10;16.57;;;13.00;1.10;;;;;;5071168;28;20916;-54
2022/05/06 04:30:11;;;;;;;28.02;17.02;;;12.90;1.00;;;;;;5062675;28;20385;-54
2022/05/06 04:32:37;;;;;;;33.08;18.10;;;12.70;23.00;;;;;;5051703;28;20378;-54
2022/05/06 04:35:06;;;;;;;25.33;16.23;;;12.70;58.10;;;;;;5068043;28;20388;-55
2022/05/06 04:37:38;;;;;;;29.20;17.33;;;12.60;51.50;;;;;;5070128;28;20453;-55
2022/05/06 04:40:05;;;;;;;27.20;17.25;;;12.40;97.80;;;;;;5055828;28;20920;-54
2022/05/06 04:42:30;;;;;;;28.42;17.52;;;12.50;79.70;;;;;;5070018;28;20900;-55
2022/05/06 04:44:56;;;;;;;25.17;17.40;;;12.50;84.40;;;;;;5055984;28;20498;-55
2022/05/06 04:47:22;;;;;;;28.50;18.42;;;12.60;93.40;;;;;;5057982;28;20393;-55
2022/05/06 04:49:48;;;;;;;28.63;19.57;;;12.60;89.50;;;;;;5061810;28;20384;-54
2022/05/06 04:52:13;;;;;;;28.42;19.23;;;12.50;99.90;;;;;;5056282;28;20459;-54
2022/05/06 04:54:39;;;;;;;36.77;21.10;;;12.50;99.90;;;;;;5056141;28;20801;-54
2022/05/06 04:57:05;;;;;;;36.20;22.10;;;12.40;99.90;;;;;;5054796;28;20468;-54
2022/05/06 04:59:31;;;;;;;37.58;22.65;;;12.40;99.90;;;;;;5068632;28;20400;-55
2022/05/06 05:01:57;;;;;;;39.78;22.90;;;12.40;99.90;;;;;;5065189;28;20466;-54
2022/05/06 05:04:27;;;;;;;38.10;22.35;;;12.50;99.90;;;;;;5051735;28;20417;-55
2022/05/06 05:06:54;;;;;;;38.05;22.80;;;12.60;99.90;;;;;;5056971;28;20745;-54
2022/05/06 05:09:20;;;;;;;38.55;22.98;;;12.60;99.90;;;;;;5065491;28;20873;-54
2022/05/06 05:11:47;;;;;;;42.20;23.10;;;12.60;99.90;;;;;;5051119;28;20541;-55
2022/05/06 05:14:13;;;;;;;39.07;23.80;;;12.70;99.90;;;;;;5056168;28;20393;-56
2022/05/06 05:16:39;;;;;;;41.33;24.23;;;12.70;99.90;;;;;;5063485;28;20897;-55
2022/05/06 05:19:04;;;;;;;42.83;25.20;;;12.70;99.90;;;;;;5059008;28;20398;-55
2022/05/06 05:21:30;;;;;;;42.00;24.30;;;12.90;99.90;;;;;;5058939;28;20472;-55
2022/05/06 05:23:56;;;;;;;42.20;24.00;;;13.00;99.90;;;;;;5068516;28;20415;-54
2022/05/06 05:26:21;;;;;;;37.47;22.80;;;13.00;88.30;;;;;;5059669;28;20390;-55
2022/05/06 05:28:47;;;;;;;34.70;21.65;;;13.00;90.80;;;;;;5056285;28;20412;-55
2022/05/06 05:31:12;;;;;;;35.80;21.60;;;13.10;63.60;;;;;;5057901;28;20893;-54
2022/05/06 05:33:38;;;;;;;31.38;20.25;;;12.90;46.80;;;;;;5070341;28;20388;-57
2022/05/06 05:36:04;;;;;;;34.60;19.30;;;13.00;56.00;;;;;;5067271;28;20399;-55
2022/05/06 05:38:30;;;;;;;32.85;20.23;;;13.00;32.20;;;;;;5066133;28;20969;-55
2022/05/06 05:40:55;;;;;;;30.27;18.80;;;13.10;23.50;;;;;;5063201;28;20392;-55
2022/05/06 05:48:52;;;;;;;30.88;19.33;;;13.10;26.20;;;;;;5060280;28;20393;-56
2022/05/06 05:51:18;;;;;;;27.52;17.25;;;13.10;1.00;;;;;;5056061;28;20862;-55
2022/05/06 05:53:43;;;;;;;31.70;18.50;;;13.10;1.00;;;;;;5061024;28;20429;-55
2022/05/06 05:56:09;;;;;;;27.10;17.67;;;13.10;1.00;;;;;;5062789;28;21300;-55
2022/05/06 05:58:35;;;;;;;29.23;18.80;;;13.20;1.00;;;;;;5062876;28;20407;-55
2022/05/06 06:01:03;;;;;;;26.00;17.80;;;13.20;1.00;;;;;;5057720;28;20382;-55
2022/05/06 06:03:29;;;;;;;30.60;17.40;;;13.20;1.00;;;;;;5058735;28;20425;-55
2022/05/06 06:05:54;;;;;;;27.38;18.10;;;13.10;1.00;;;;;;5053486;28;20721;-55
2022/05/06 06:08:21;;;;;;;26.77;17.13;;;13.30;1.00;;;;;;5055646;28;20761;-55
2022/05/06 06:10:47;;;;;;;26.27;16.90;;;13.30;1.00;;;;;;5056601;28;20467;-55
2022/05/06 06:13:16;;;;;;;31.37;18.70;;;14.10;1.00;;;;;;5058099;28;21157;-55
2022/05/06 06:15:42;;;;;;;28.05;17.42;;;13.40;1.00;;;;;;5059156;28;20385;-55
2022/05/06 06:18:07;;;;;;;30.30;17.52;;;13.40;1.00;;;;;;5059965;28;20402;-55
2022/05/06 06:20:33;;;;;;;26.20;17.33;;;13.40;1.00;;;;;;5042490;28;20808;-55
2022/05/06 06:22:59;;;;;;;32.67;17.80;;;13.40;1.00;;;;;;5056418;28;20439;-55
2022/05/06 06:25:26;;;;;;;31.02;18.98;;;13.30;1.00;;;;;;5054961;28;20430;-56
2022/05/06 06:27:52;;;;;;;29.65;17.90;;;13.30;1.00;;;;;;5060373;28;20427;-55
2022/05/06 06:30:17;;;;;;;27.10;17.20;;;13.20;1.00;;;;;;5060212;28;20865;-56
2022/05/06 06:32:43;;;;;;;30.85;16.83;;;13.20;1.00;;;;;;5060062;28;20396;-56
2022/05/06 06:35:09;;;;;;;26.77;17.00;;;13.30;1.00;;;;;;5061481;28;20422;-55
2022/05/06 06:37:34;;;;;;;24.13;15.05;;;13.30;1.00;;;;;;5060252;28;20397;-55
2022/05/06 06:40:00;;;;;;;25.53;15.87;;;13.50;1.00;;;;;;5057180;28;20395;-55
2022/05/06 06:42:26;;;;;;;24.30;15.80;;;13.50;1.00;;;;;;5060973;28;20816;-55
2022/05/06 06:44:51;;;;;;;24.85;14.60;;;13.50;1.00;;;;;;5055900;28;20457;-55
2022/05/06 06:47:17;;;;;;;23.07;14.37;;;13.60;1.00;;;;;;5058778;28;20920;-55
2022/05/06 06:49:43;;;;;;;22.52;14.85;;;13.60;1.00;;;;;;5065424;28;20408;-55
2022/05/06 06:52:08;;;;;;;22.85;14.00;;;13.60;1.00;;;;;;5059062;28;20532;-56
2022/05/06 06:54:34;;;;;;;19.60;13.47;;;13.80;1.00;;;;;;5062421;28;20404;-56
2022/05/06 06:56:59;;;;;;;23.48;13.52;;;13.80;1.00;;;;;;5060197;28;20401;-53
2022/05/06 06:59:25;;;;;;;21.43;15.10;;;12.50;1.00;;;;;;5059565;28;20440;-53
2022/05/06 07:01:51;;;;;;;21.47;14.03;;;14.10;1.00;;;;;;5061438;28;20856;-53
2022/05/06 07:04:16;;;;;;;19.33;12.63;;;14.10;1.00;;;;;;5059291;28;21202;-53
2022/05/06 07:12:11;;;;;;;19.75;12.32;;;14.20;1.00;;;;;;5054534;28;20388;-53
2022/05/06 07:14:36;;;;;;;20.85;12.90;;;14.20;1.00;;;;;;5069173;28;20435;-54
2022/05/06 07:17:05;;;;;;;20.17;12.95;;;14.30;1.00;;;;;;5059873;28;20385;-53
2022/05/06 07:19:34;;;;;;;17.10;11.40;;;14.20;99.90;;;;;;5064362;28;20439;-53
2022/05/06 07:22:00;;;;;;;18.37;10.90;;;14.20;99.90;;;;;;5061561;28;20469;-53
2022/05/06 07:24:26;;;;;;;16.92;10.73;;;14.20;99.90;;;;;;5063750;28;20523;-53
2022/05/06 07:26:56;;;;;;;17.63;11.40;;;14.20;99.90;;;;;;5061561;28;20417;-53
2022/05/06 07:29:22;;;;;;;17.77;11.23;;;14.30;99.90;;;;;;5064395;28;20394;-53
2022/05/06 07:31:48;;;;;;;19.65;11.48;;;14.50;1.90;;;;;;5062366;28;20432;-53
2022/05/06 07:34:15;;;;;;;17.38;11.00;;;14.30;1.00;;;;;;5061491;28;20400;-53
2022/05/06 07:36:42;;;;;;;18.33;10.30;;;14.30;1.00;;;;;;5061973;28;20382;-53
2022/05/06 07:39:14;;;;;;;16.15;10.35;;;14.40;1.00;;;;;;5063096;28;20710;-56
2022/05/06 07:41:41;;;;;;;15.00;9.73;;;14.50;1.00;;;;;;5064021;28;20379;-55
2022/05/06 07:44:07;;;;;;;15.45;10.77;;;14.50;1.00;;;;;;5060365;28;20461;-55
2022/05/06 07:46:34;;;;;;;16.05;10.45;;;14.60;99.90;;;;;;5060680;28;20415;-55
2022/05/06 07:49:00;;;;;;;16.77;10.30;;;14.80;99.90;;;;;;5062989;28;20380;-54
2022/05/06 07:51:27;;;;;;;14.98;9.60;;;15.00;99.90;;;;;;5059336;28;20438;-54
2022/05/06 07:53:55;;;;;;;22.85;9.98;;;15.20;1.00;;;;;;5059734;28;20469;-53
2022/05/06 07:56:25;;;;;;;15.27;9.60;;;15.40;1.00;;;;;;5060079;28;20730;-55
2022/05/06 07:58:51;;;;;;;15.47;9.53;;;15.30;99.90;;;;;;5061405;28;20856;-53
2022/05/06 08:01:18;;;;;;;11.82;8.25;;;15.50;99.90;;;;;;5052821;28;20793;-53
2022/05/06 08:06:30;;;;;;;13.35;8.60;;;15.20;1.00;;;;;;5065128;28;20501;-55
2022/05/06 08:08:55;;;;;;;16.13;8.90;;;15.00;1.00;;;;;;5051373;28;20484;-53
2022/05/06 08:11:22;;;;;;;14.13;8.55;;;15.00;1.00;;;;;;5051693;28;20411;-55
2022/05/06 08:13:49;;;;;;;16.77;10.50;;;14.70;1.00;;;;;;5062914;28;20768;-55
2022/05/06 08:16:15;;;;;;;14.02;8.70;;;14.60;1.00;;;;;;5062990;28;20463;-54
2022/05/06 08:18:41;;;;;;;13.70;8.40;;;14.80;38.00;;;;;;5059066;28;20747;-55
2022/05/06 08:21:06;;;;;;;13.70;8.18;;;15.20;1.00;;;;;;5051014;28;20409;-55
2022/05/06 08:23:32;;;;;;;14.18;8.57;;;15.20;99.90;;;;;;5051456;28;20420;-55
2022/05/06 08:25:58;;;;;;;16.10;8.87;;;15.30;1.00;;;;;;5050938;28;20385;-54
2022/05/06 08:28:24;;;;;;;18.52;9.93;;;15.20;99.90;;;;;;5032980;28;20480;-55
2022/05/06 08:30:50;;;;;;;21.40;9.37;;;15.30;1.00;;;;;;5054786;28;20452;-54
2022/05/06 08:33:17;;;;;;;13.98;8.65;;;15.50;99.90;;;;;;5059714;28;20456;-54
2022/05/06 08:35:43;;;;;;;12.18;8.50;;;15.80;99.90;;;;;;5063010;28;20457;-53
2022/05/06 08:38:09;;;;;;;13.85;8.98;;;15.90;99.90;;;;;;5070665;28;20376;-54
2022/05/06 08:40:38;;;;;;;14.02;9.18;;;15.90;99.90;;;;;;5071087;28;20873;-56
2022/05/06 08:43:05;;;;;;;12.90;8.55;;;15.90;94.50;;;;;;5070622;28;20407;-55
2022/05/06 08:51:03;;;;;;;14.05;9.00;;;15.90;57.20;;;;;;5066612;28;20466;-53
2022/05/06 08:53:33;;;;;;;13.88;8.90;;;16.10;1.00;;;;;;5061924;28;20408;-53
2022/05/06 08:56:02;;;;;;;13.10;8.00;;;16.00;1.00;;;;;;5061538;28;20385;-53
2022/05/06 08:58:31;;;;;;;14.60;8.93;;;16.00;1.00;;;;;;5061327;28;20864;-53
2022/05/06 09:01:08;;;;;;;15.63;8.93;;;16.30;1.00;;;;;;5061029;28;20483;-52
2022/05/06 09:03:37;;;;;;;14.32;8.15;;;16.30;1.00;;;;;;5061704;28;20416;-53
2022/05/06 09:06:03;;;;;;;16.30;9.20;;;16.40;1.00;;;;;;5060418;28;20875;-53
2022/05/06 09:08:43;;;;;;;13.90;8.40;;;16.40;1.00;;;;;;5059953;28;20399;-53
2022/05/06 09:11:08;;;;;;;14.20;8.40;;;16.70;1.00;;;;;;5043862;28;20391;-55
2022/05/06 09:13:36;;;;;;;17.73;8.57;;;16.90;99.90;;;;;;5060904;28;20715;-55
2022/05/06 09:19:17;;;;;;;15.40;8.23;;;16.90;99.90;;;;;;5063298;28;20504;-55
2022/05/06 09:22:38;;;;;;;13.60;7.90;;;16.90;99.90;;;;;;5061428;28;20593;-55
2022/05/06 09:24:57;;;;;;;12.80;7.72;;;17.00;99.90;;;;;;5061626;28;20390;-55
2022/05/06 09:27:23;;;;;;;18.15;8.75;;;17.20;99.90;;;;;;5062534;28;20883;-56
2022/05/06 09:29:51;;;;;;;11.70;7.32;;;17.80;99.90;;;;;;5060530;28;20407;-56
2022/05/06 09:32:24;;;;;;;13.40;7.70;;;18.00;99.90;;;;;;5058743;28;20435;-56
2022/05/06 09:34:53;;;;;;;17.15;7.45;;;19.20;99.90;;;;;;5061990;28;20383;-54
2022/05/06 09:37:36;;;;;;;14.30;7.53;;;21.20;99.90;;;;;;5063936;28;20383;-53
2022/05/06 09:40:18;;;;;;;12.68;7.18;;;22.00;99.90;;;;;;5065772;28;20388;-56
2022/05/06 09:43:04;;;;;;;11.15;7.05;;;22.30;99.90;;;;;;5063973;28;20521;-53
2022/05/06 09:45:39;;;;;;;11.57;7.00;;;22.30;99.90;;;;;;5059884;28;20413;-54
2022/05/06 09:48:08;;;;;;;12.73;6.23;;;21.50;99.90;;;;;;5063659;28;20378;-53
2022/05/06 09:50:45;;;;;;;11.50;6.20;;;22.10;99.90;;;;;;5049547;28;20409;-53
2022/05/06 09:53:13;;;;;;;12.48;6.45;;;22.10;99.90;;;;;;5064185;28;20396;-53
2022/05/06 09:55:47;;;;;;;11.40;5.90;;;22.00;99.90;;;;;;5052167;28;20385;-53
2022/05/06 09:58:15;;;;;;;10.10;5.78;;;22.10;99.90;;;;;;5062660;28;20562;-54
2022/05/06 10:00:41;;;;;;;10.65;5.30;;;22.10;99.60;;;;;;5060383;28;20412;-54
2022/05/06 10:03:11;;;;;;;10.97;5.60;;;22.30;98.20;;;;;;5062305;28;20412;-54
2022/05/06 10:05:37;;;;;;;10.75;5.88;;;22.40;97.80;;;;;;5063059;28;20502;-54
2022/05/06 10:08:11;;;;;;;10.73;5.90;;;22.10;98.20;;;;;;5057536;28;20384;-54
2022/05/06 10:10:44;;;;;;;11.47;5.90;;;21.80;98.10;;;;;;5059689;28;20397;-53
2022/05/06 10:13:15;;;;;;;10.23;5.68;;;21.30;98.30;;;;;;5059023;28;20470;-54
2022/05/06 10:15:41;;;;;;;10.20;5.30;;;21.20;97.40;;;;;;5061523;28;20381;-54
2022/05/06 10:18:07;;;;;;;12.33;5.83;;;20.90;97.70;;;;;;5058547;28;20436;-54
2022/05/06 10:20:41;;;;;;;9.88;5.38;;;21.20;98.00;;;;;;5059404;28;20810;-55
2022/05/06 10:23:08;;;;;;;11.82;5.50;;;21.90;97.30;;;;;;5059119;28;20408;-55
2022/05/06 10:25:42;;;;;;;10.43;5.83;;;23.00;94.00;;;;;;5064917;28;20400;-55
2022/05/06 10:34:16;;;;;;;11.50;5.50;;;22.90;91.30;;;;;;5068472;28;20399;-55
2022/05/06 10:36:54;;;;;;;10.50;5.90;;;22.90;91.20;;;;;;5069430;28;20383;-55
2022/05/06 10:39:26;;;;;;;11.23;5.90;;;23.20;90.90;;;;;;5046887;28;20831;-55
2022/05/06 10:42:07;;;;;;;8.90;5.82;;;23.60;90.90;;;;;;5059718;28;20483;-55
2022/05/06 10:44:44;;;;;;;11.07;6.25;;;23.00;88.40;;;;;;5059916;28;20414;-56
2022/05/06 10:47:12;;;;;;;11.48;5.50;;;22.30;90.60;;;;;;5059115;28;20877;-55
2022/05/06 10:49:37;;;;;;;10.50;5.23;;;22.30;92.70;;;;;;5057889;28;20439;-55
2022/05/06 10:52:28;;;;;;;10.17;5.90;;;22.20;91.30;;;;;;5058016;28;20397;-55
2022/05/06 10:54:55;;;;;;;12.18;5.80;;;22.10;91.20;;;;;;5066140;28;20916;-55
2022/05/06 10:57:25;;;;;;;9.70;5.60;;;21.50;91.70;;;;;;5066274;28;20389;-54
2022/05/06 10:59:55;;;;;;;10.07;5.70;;;21.40;91.70;;;;;;5066635;28;20379;-55
2022/05/06 11:02:27;;;;;;;12.77;5.95;;;21.90;91.30;;;;;;5053014;28;20401;-55
2022/05/06 11:04:54;;;;;;;12.38;6.32;;;22.00;90.70;;;;;;5061272;28;20413;-55
2022/05/06 11:07:20;;;;;;;9.40;5.80;;;22.00;88.70;;;;;;5057680;28;20394;-55
2022/05/06 11:09:46;;;;;;;11.13;5.67;;;21.40;90.30;;;;;;5054954;28;20472;-55
2022/05/06 11:12:33;;;;;;;11.35;5.88;;;21.20;91.10;;;;;;5071227;28;20470;-55
2022/05/06 11:15:02;;;;;;;11.07;5.30;;;20.80;91.70;;;;;;5065919;28;20763;-54
2022/05/06 11:17:28;;;;;;;11.35;6.00;;;20.90;91.80;;;;;;5052907;28;20373;-55
2022/05/06 11:19:54;;;;;;;9.63;5.60;;;21.30;91.40;;;;;;5052564;28;20378;-55
2022/05/06 11:22:23;;;;;;;10.18;4.95;;;21.50;91.10;;;;;;5051985;28;21276;-55
2022/05/06 11:24:54;;;;;;;9.68;5.68;;;21.90;91.00;;;;;;5054513;28;20394;-55
2022/05/06 11:27:21;;;;;;;10.45;5.47;;;21.60;90.30;;;;;;5062169;28;20388;-53
2022/05/06 11:30:19;;;;;;;11.10;5.70;;;21.20;90.30;;;;;;5064313;28;20448;-55
2022/05/06 11:32:52;;;;;;;9.45;5.40;;;21.50;90.80;;;;;;5059898;28;20396;-55
2022/05/06 11:35:30;;;;;;;8.70;5.20;;;21.20;90.70;;;;;;5052022;28;20480;-55
2022/05/06 11:37:56;;;;;;;10.27;5.47;;;20.90;90.80;;;;;;5069227;28;20375;-54
2022/05/06 11:42:57;;;;;;;8.68;5.15;;;20.90;91.50;;;;;;5060829;28;20412;-54
2022/05/06 11:48:13;;;;;;;10.87;5.20;;;21.90;91.60;;;;;;5071445;28;20783;-55
2022/05/06 11:50:41;;;;;;;9.60;5.40;;;22.60;88.20;;;;;;5069457;28;20438;-55
2022/05/06 11:53:11;;;;;;;9.75;5.30;;;21.80;89.80;;;;;;5063884;28;20399;-55
2022/05/06 11:55:39;;;;;;;8.75;5.47;;;21.30;91.30;;;;;;5053366;28;20389;-55
2022/05/06 11:58:07;;;;;;;10.65;6.05;;;21.00;91.00;;;;;;5056963;28;20388;-55
2022/05/06 12:00:33;;;;;;;11.20;5.13;;;20.80;91.00;;;;;;5062875;28;20698;-55
2022/05/06 12:03:07;;;;;;;9.43;5.82;;;21.20;91.40;;;;;;5061304;28;20404;-54
2022/05/06 12:05:37;;;;;;;9.45;5.70;;;22.00;90.30;;;;;;5061074;28;20489;-55
2022/05/06 12:08:03;;;;;;;11.88;6.10;;;22.60;89.10;;;;;;5057102;28;20467;-55
2022/05/06 12:10:38;;;;;;;10.40;5.18;;;22.60;86.90;;;;;;5062756;28;20387;-55
2022/05/06 12:13:07;;;;;;;11.57;6.18;;;21.80;90.00;;;;;;5058471;28;20476;-55
2022/05/06 12:15:41;;;;;;;14.18;5.63;;;21.70;89.80;;;;;;5062399;28;20393;-55
2022/05/06 12:18:09;;;;;;;10.20;5.60;;;21.60;89.80;;;;;;5064353;28;20436;-55
2022/05/06 12:20:43;;;;;;;12.20;5.20;;;21.90;89.80;;;;;;5062915;28;20503;-55
2022/05/06 12:23:11;;;;;;;12.57;5.78;;;22.10;90.00;;;;;;5058973;28;20505;-55
2022/05/06 12:25:40;;;;;;;12.50;6.50;;;22.30;88.80;;;;;;5060221;28;20453;-55
2022/05/06 12:28:15;;;;;;;11.93;5.63;;;22.20;87.80;;;;;;5069746;28;20730;-55
2022/05/06 12:30:42;;;;;;;11.40;5.57;;;22.40;89.20;;;;;;5071729;28;20482;-57
2022/05/06 12:33:12;;;;;;;11.27;5.90;;;21.90;89.10;;;;;;5058812;28;20870;-55
2022/05/06 12:35:56;;;;;;;12.90;6.20;;;21.60;90.50;;;;;;5061540;28;20562;-56
2022/05/06 12:38:44;;;;;;;10.32;6.30;;;21.60;89.70;;;;;;5059878;28;20394;-55
2022/05/06 12:41:20;;;;;;;10.75;5.93;;;21.90;89.60;;;;;;5059542;28;20391;-55
2022/05/06 12:43:51;;;;;;;9.00;5.50;;;22.40;90.00;;;;;;5061023;28;20556;-56
2022/05/06 12:46:27;;;;;;;10.95;6.00;;;22.90;89.50;;;;;;5056600;28;20484;-56
2022/05/06 12:51:40;;;;;;;10.50;5.40;;;22.40;87.70;;;;;;5063936;28;20419;-56
2022/05/06 12:54:06;;;;;;;11.48;6.40;;;22.20;88.00;;;;;;5060697;28;20479;-55
2022/05/06 12:56:32;;;;;;;11.15;6.50;;;22.00;88.40;;;;;;5061299;28;20829;-56
2022/05/06 12:58:58;;;;;;;12.13;6.15;;;22.30;87.70;;;;;;5059997;28;20377;-56
2022/05/06 13:01:24;;;;;;;10.98;5.70;;;22.30;87.70;;;;;;5062545;28;20499;-58
2022/05/06 13:03:49;;;;;;;11.43;6.40;;;22.30;87.90;;;;;;5063320;28;20409;-58
2022/05/06 13:06:15;;;;;;;10.23;6.60;;;22.00;90.10;;;;;;5054696;28;20382;-53
2022/05/06 13:08:41;;;;;;;10.20;6.00;;;22.10;87.70;;;;;;5054571;28;20401;-54
2022/05/06 13:11:06;;;;;;;11.13;6.53;;;22.10;87.80;;;;;;5068913;28;20860;-54
2022/05/06 13:13:32;;;;;;;12.60;6.20;;;22.00;87.60;;;;;;5064969;28;20424;-55
2022/05/06 13:15:59;;;;;;;10.57;5.83;;;21.80;88.10;;;;;;5050633;28;20734;-55
2022/05/06 13:18:25;;;;;;;9.65;5.72;;;22.10;88.30;;;;;;5050072;28;20386;-55
2022/05/06 13:20:51;;;;;;;10.10;6.00;;;22.10;87.90;;;;;;5050449;28;20417;-54
2022/05/06 13:23:16;;;;;;;11.80;6.00;;;22.30;88.60;;;;;;5049545;28;20421;-55
2022/05/06 13:25:42;;;;;;;12.32;6.10;;;22.50;88.90;;;;;;5050499;28;20923;-55
2022/05/06 13:28:08;;;;;;;11.75;6.30;;;22.50;88.40;;;;;;5050028;28;20373;-55
2022/05/06 13:30:33;;;;;;;12.10;6.50;;;22.30;86.50;;;;;;5050116;28;20377;-55